Metar z pełnej godziny Komunikat METAR ze strony awiacja.imgw.pl Metar G00 EPGD METAR EPGD 271400Z 30005KT 260V320 7000 BKN005 02/01 Q0994 =